sensor_id;sensor_type;location;lat;lon;timestamp;P1;durP1;ratioP1;P2;durP2;ratioP2
75626;SDS011;67372;49.404;11.034;2024-03-06T00:00:28;14.88;;;7.30;;
75626;SDS011;67372;49.404;11.034;2024-03-06T00:02:54;18.33;;;7.72;;
75626;SDS011;67372;49.404;11.034;2024-03-06T00:05:21;16.42;;;7.78;;
75626;SDS011;67372;49.404;11.034;2024-03-06T00:07:47;15.90;;;7.57;;
75626;SDS011;67372;49.404;11.034;2024-03-06T00:10:14;16.67;;;7.68;;
75626;SDS011;67372;49.404;11.034;2024-03-06T00:12:40;17.70;;;7.80;;
75626;SDS011;67372;49.404;11.034;2024-03-06T00:15:07;18.52;;;8.68;;
75626;SDS011;67372;49.404;11.034;2024-03-06T00:17:33;17.13;;;7.38;;
75626;SDS011;67372;49.404;11.034;2024-03-06T00:20:00;16.83;;;7.03;;
75626;SDS011;67372;49.404;11.034;2024-03-06T00:22:26;15.35;;;7.35;;
75626;SDS011;67372;49.404;11.034;2024-03-06T00:24:53;16.27;;;7.80;;
75626;SDS011;67372;49.404;11.034;2024-03-06T00:27:19;16.52;;;7.78;;
75626;SDS011;67372;49.404;11.034;2024-03-06T00:29:45;16.48;;;7.50;;
75626;SDS011;67372;49.404;11.034;2024-03-06T00:32:12;14.60;;;6.93;;
75626;SDS011;67372;49.404;11.034;2024-03-06T00:34:39;16.08;;;8.30;;
75626;SDS011;67372;49.404;11.034;2024-03-06T00:37:05;17.30;;;7.28;;
75626;SDS011;67372;49.404;11.034;2024-03-06T00:39:32;15.88;;;7.15;;
75626;SDS011;67372;49.404;11.034;2024-03-06T00:41:58;13.63;;;7.03;;
75626;SDS011;67372;49.404;11.034;2024-03-06T00:44:24;14.18;;;7.72;;
75626;SDS011;67372;49.404;11.034;2024-03-06T00:46:51;14.65;;;7.55;;
75626;SDS011;67372;49.404;11.034;2024-03-06T00:49:17;18.88;;;8.27;;
75626;SDS011;67372;49.404;11.034;2024-03-06T00:51:44;16.08;;;7.57;;
75626;SDS011;67372;49.404;11.034;2024-03-06T00:54:15;18.08;;;8.25;;
75626;SDS011;67372;49.404;11.034;2024-03-06T00:56:41;19.13;;;8.93;;
75626;SDS011;67372;49.404;11.034;2024-03-06T00:59:07;16.67;;;7.80;;
75626;SDS011;67372;49.404;11.034;2024-03-06T01:01:34;16.33;;;7.10;;
75626;SDS011;67372;49.404;11.034;2024-03-06T01:04:00;17.05;;;7.35;;
75626;SDS011;67372;49.404;11.034;2024-03-06T01:06:27;15.73;;;7.65;;
75626;SDS011;67372;49.404;11.034;2024-03-06T01:08:54;17.73;;;8.20;;
75626;SDS011;67372;49.404;11.034;2024-03-06T01:11:20;18.00;;;7.65;;
75626;SDS011;67372;49.404;11.034;2024-03-06T01:13:47;17.55;;;8.20;;
75626;SDS011;67372;49.404;11.034;2024-03-06T01:16:13;19.20;;;7.88;;
75626;SDS011;67372;49.404;11.034;2024-03-06T01:18:39;17.30;;;7.85;;
75626;SDS011;67372;49.404;11.034;2024-03-06T01:21:06;21.20;;;8.55;;
75626;SDS011;67372;49.404;11.034;2024-03-06T01:23:32;16.77;;;8.48;;
75626;SDS011;67372;49.404;11.034;2024-03-06T01:25:58;19.17;;;8.07;;
75626;SDS011;67372;49.404;11.034;2024-03-06T01:28:25;18.17;;;8.00;;
75626;SDS011;67372;49.404;11.034;2024-03-06T01:30:51;18.13;;;8.00;;
75626;SDS011;67372;49.404;11.034;2024-03-06T01:33:18;19.25;;;8.25;;
75626;SDS011;67372;49.404;11.034;2024-03-06T01:35:44;18.05;;;7.50;;
75626;SDS011;67372;49.404;11.034;2024-03-06T01:38:10;19.67;;;8.43;;
75626;SDS011;67372;49.404;11.034;2024-03-06T01:40:37;21.77;;;9.27;;
75626;SDS011;67372;49.404;11.034;2024-03-06T01:43:16;15.35;;;7.80;;
75626;SDS011;67372;49.404;11.034;2024-03-06T01:45:44;17.08;;;8.10;;
75626;SDS011;67372;49.404;11.034;2024-03-06T01:48:11;19.50;;;8.35;;
75626;SDS011;67372;49.404;11.034;2024-03-06T01:50:37;15.95;;;7.35;;
75626;SDS011;67372;49.404;11.034;2024-03-06T01:53:04;17.40;;;7.90;;
75626;SDS011;67372;49.404;11.034;2024-03-06T01:55:30;18.02;;;8.63;;
75626;SDS011;67372;49.404;11.034;2024-03-06T01:57:57;16.95;;;8.13;;
75626;SDS011;67372;49.404;11.034;2024-03-06T02:00:23;19.85;;;8.07;;
75626;SDS011;67372;49.404;11.034;2024-03-06T02:02:49;19.60;;;8.40;;
75626;SDS011;67372;49.404;11.034;2024-03-06T02:05:16;17.52;;;7.80;;
75626;SDS011;67372;49.404;11.034;2024-03-06T02:07:43;18.50;;;8.73;;
75626;SDS011;67372;49.404;11.034;2024-03-06T02:10:10;20.05;;;8.30;;
75626;SDS011;67372;49.404;11.034;2024-03-06T02:12:37;18.85;;;9.07;;
75626;SDS011;67372;49.404;11.034;2024-03-06T02:15:03;20.50;;;9.02;;
75626;SDS011;67372;49.404;11.034;2024-03-06T02:17:30;22.73;;;9.45;;
75626;SDS011;67372;49.404;11.034;2024-03-06T02:19:57;19.25;;;8.73;;
75626;SDS011;67372;49.404;11.034;2024-03-06T02:22:23;20.33;;;8.88;;
75626;SDS011;67372;49.404;11.034;2024-03-06T02:24:50;19.50;;;8.90;;
75626;SDS011;67372;49.404;11.034;2024-03-06T02:27:16;22.38;;;8.57;;
75626;SDS011;67372;49.404;11.034;2024-03-06T02:29:42;23.85;;;9.93;;
75626;SDS011;67372;49.404;11.034;2024-03-06T02:32:09;22.88;;;9.93;;
75626;SDS011;67372;49.404;11.034;2024-03-06T02:34:38;20.50;;;8.98;;
75626;SDS011;67372;49.404;11.034;2024-03-06T02:37:05;19.45;;;9.35;;
75626;SDS011;67372;49.404;11.034;2024-03-06T02:39:31;20.05;;;9.25;;
75626;SDS011;67372;49.404;11.034;2024-03-06T02:41:57;19.42;;;9.35;;
75626;SDS011;67372;49.404;11.034;2024-03-06T02:44:24;18.70;;;8.88;;
75626;SDS011;67372;49.404;11.034;2024-03-06T02:46:50;20.63;;;9.20;;
75626;SDS011;67372;49.404;11.034;2024-03-06T02:49:17;22.88;;;9.68;;
75626;SDS011;67372;49.404;11.034;2024-03-06T02:51:44;23.13;;;9.77;;
75626;SDS011;67372;49.404;11.034;2024-03-06T02:54:10;21.73;;;10.10;;
75626;SDS011;67372;49.404;11.034;2024-03-06T02:56:37;24.13;;;11.00;;
75626;SDS011;67372;49.404;11.034;2024-03-06T02:59:03;24.52;;;10.93;;
75626;SDS011;67372;49.404;11.034;2024-03-06T03:01:30;23.25;;;10.82;;
75626;SDS011;67372;49.404;11.034;2024-03-06T03:03:56;27.30;;;10.35;;
75626;SDS011;67372;49.404;11.034;2024-03-06T03:06:23;23.80;;;10.63;;
75626;SDS011;67372;49.404;11.034;2024-03-06T03:08:49;23.95;;;10.20;;
75626;SDS011;67372;49.404;11.034;2024-03-06T03:11:16;25.67;;;11.00;;
75626;SDS011;67372;49.404;11.034;2024-03-06T03:13:42;26.58;;;11.68;;
75626;SDS011;67372;49.404;11.034;2024-03-06T03:16:15;22.45;;;9.88;;
75626;SDS011;67372;49.404;11.034;2024-03-06T03:18:45;24.77;;;9.90;;
75626;SDS011;67372;49.404;11.034;2024-03-06T03:21:11;23.77;;;9.65;;
75626;SDS011;67372;49.404;11.034;2024-03-06T03:23:38;25.65;;;11.45;;
75626;SDS011;67372;49.404;11.034;2024-03-06T03:26:06;27.48;;;11.10;;
75626;SDS011;67372;49.404;11.034;2024-03-06T03:28:33;28.08;;;12.30;;
75626;SDS011;67372;49.404;11.034;2024-03-06T03:30:59;25.63;;;10.50;;
75626;SDS011;67372;49.404;11.034;2024-03-06T03:33:26;28.92;;;12.13;;
75626;SDS011;67372;49.404;11.034;2024-03-06T03:35:52;28.42;;;11.00;;
75626;SDS011;67372;49.404;11.034;2024-03-06T03:38:18;29.27;;;11.40;;
75626;SDS011;67372;49.404;11.034;2024-03-06T03:40:45;27.52;;;11.55;;
75626;SDS011;67372;49.404;11.034;2024-03-06T03:43:11;27.58;;;11.32;;
75626;SDS011;67372;49.404;11.034;2024-03-06T03:45:38;24.65;;;11.38;;
75626;SDS011;67372;49.404;11.034;2024-03-06T03:48:04;28.48;;;11.30;;
75626;SDS011;67372;49.404;11.034;2024-03-06T03:50:31;28.08;;;10.90;;
75626;SDS011;67372;49.404;11.034;2024-03-06T03:52:58;26.83;;;11.05;;
75626;SDS011;67372;49.404;11.034;2024-03-06T03:55:24;30.92;;;13.18;;
75626;SDS011;67372;49.404;11.034;2024-03-06T03:57:51;26.25;;;11.73;;
75626;SDS011;67372;49.404;11.034;2024-03-06T04:00:17;28.75;;;11.52;;
75626;SDS011;67372;49.404;11.034;2024-03-06T04:02:44;24.92;;;10.70;;
75626;SDS011;67372;49.404;11.034;2024-03-06T04:05:10;28.98;;;11.98;;
75626;SDS011;67372;49.404;11.034;2024-03-06T04:07:37;28.85;;;11.68;;
75626;SDS011;67372;49.404;11.034;2024-03-06T04:10:04;27.38;;;11.75;;
75626;SDS011;67372;49.404;11.034;2024-03-06T04:12:30;29.80;;;11.05;;
75626;SDS011;67372;49.404;11.034;2024-03-06T04:14:56;32.15;;;11.43;;
75626;SDS011;67372;49.404;11.034;2024-03-06T04:17:23;32.17;;;13.20;;
75626;SDS011;67372;49.404;11.034;2024-03-06T04:19:50;29.80;;;12.43;;
75626;SDS011;67372;49.404;11.034;2024-03-06T04:22:18;27.20;;;10.32;;
75626;SDS011;67372;49.404;11.034;2024-03-06T04:24:45;28.25;;;11.77;;
75626;SDS011;67372;49.404;11.034;2024-03-06T04:27:11;30.63;;;12.25;;
75626;SDS011;67372;49.404;11.034;2024-03-06T04:29:38;31.20;;;11.80;;
75626;SDS011;67372;49.404;11.034;2024-03-06T04:32:04;29.10;;;11.80;;
75626;SDS011;67372;49.404;11.034;2024-03-06T04:34:31;28.20;;;12.60;;
75626;SDS011;67372;49.404;11.034;2024-03-06T04:36:57;29.70;;;11.02;;
75626;SDS011;67372;49.404;11.034;2024-03-06T04:39:23;30.45;;;12.82;;
75626;SDS011;67372;49.404;11.034;2024-03-06T04:41:50;28.08;;;12.15;;
75626;SDS011;67372;49.404;11.034;2024-03-06T04:44:16;28.05;;;12.10;;
75626;SDS011;67372;49.404;11.034;2024-03-06T04:46:42;30.65;;;12.50;;
75626;SDS011;67372;49.404;11.034;2024-03-06T04:49:09;31.38;;;11.63;;
75626;SDS011;67372;49.404;11.034;2024-03-06T04:51:35;28.38;;;12.15;;
75626;SDS011;67372;49.404;11.034;2024-03-06T04:54:02;31.00;;;12.15;;
75626;SDS011;67372;49.404;11.034;2024-03-06T04:56:28;32.85;;;11.80;;
75626;SDS011;67372;49.404;11.034;2024-03-06T04:58:54;33.03;;;12.70;;
75626;SDS011;67372;49.404;11.034;2024-03-06T05:01:21;34.80;;;12.77;;
75626;SDS011;67372;49.404;11.034;2024-03-06T05:03:47;31.95;;;12.15;;
75626;SDS011;67372;49.404;11.034;2024-03-06T05:06:31;34.58;;;13.50;;
75626;SDS011;67372;49.404;11.034;2024-03-06T05:09:15;34.13;;;14.48;;
75626;SDS011;67372;49.404;11.034;2024-03-06T05:11:59;31.45;;;12.05;;
75626;SDS011;67372;49.404;11.034;2024-03-06T05:14:43;31.05;;;12.23;;
75626;SDS011;67372;49.404;11.034;2024-03-06T05:17:27;33.65;;;12.85;;
75626;SDS011;67372;49.404;11.034;2024-03-06T05:20:11;35.65;;;12.13;;
75626;SDS011;67372;49.404;11.034;2024-03-06T05:22:55;32.78;;;13.10;;
75626;SDS011;67372;49.404;11.034;2024-03-06T05:25:39;36.78;;;13.75;;
75626;SDS011;67372;49.404;11.034;2024-03-06T05:28:23;29.20;;;12.23;;
75626;SDS011;67372;49.404;11.034;2024-03-06T05:31:17;31.23;;;12.18;;
75626;SDS011;67372;49.404;11.034;2024-03-06T05:34:02;33.63;;;13.15;;
75626;SDS011;67372;49.404;11.034;2024-03-06T05:36:46;37.00;;;14.02;;
75626;SDS011;67372;49.404;11.034;2024-03-06T05:39:30;28.20;;;11.52;;
75626;SDS011;67372;49.404;11.034;2024-03-06T05:42:15;35.97;;;13.55;;
75626;SDS011;67372;49.404;11.034;2024-03-06T05:44:59;31.42;;;12.38;;
75626;SDS011;67372;49.404;11.034;2024-03-06T05:47:44;33.25;;;14.05;;
75626;SDS011;67372;49.404;11.034;2024-03-06T05:50:28;33.15;;;13.43;;
75626;SDS011;67372;49.404;11.034;2024-03-06T05:53:12;29.58;;;11.73;;
75626;SDS011;67372;49.404;11.034;2024-03-06T05:55:56;33.88;;;13.02;;
75626;SDS011;67372;49.404;11.034;2024-03-06T05:58:40;35.35;;;13.50;;
75626;SDS011;67372;49.404;11.034;2024-03-06T06:01:06;38.67;;;14.35;;
75626;SDS011;67372;49.404;11.034;2024-03-06T06:03:33;35.50;;;13.85;;
75626;SDS011;67372;49.404;11.034;2024-03-06T06:05:59;36.35;;;13.05;;
75626;SDS011;67372;49.404;11.034;2024-03-06T06:08:26;31.60;;;12.23;;
75626;SDS011;67372;49.404;11.034;2024-03-06T06:10:52;34.05;;;12.98;;
75626;SDS011;67372;49.404;11.034;2024-03-06T06:13:19;33.80;;;13.32;;
75626;SDS011;67372;49.404;11.034;2024-03-06T06:15:45;34.72;;;13.63;;
75626;SDS011;67372;49.404;11.034;2024-03-06T06:18:11;36.95;;;13.85;;
75626;SDS011;67372;49.404;11.034;2024-03-06T06:20:40;37.28;;;14.70;;
75626;SDS011;67372;49.404;11.034;2024-03-06T06:23:08;39.72;;;13.60;;
75626;SDS011;67372;49.404;11.034;2024-03-06T06:25:34;30.23;;;13.05;;
75626;SDS011;67372;49.404;11.034;2024-03-06T06:28:01;34.38;;;13.52;;
75626;SDS011;67372;49.404;11.034;2024-03-06T06:30:27;35.05;;;13.30;;
75626;SDS011;67372;49.404;11.034;2024-03-06T06:32:53;31.92;;;12.55;;
75626;SDS011;67372;49.404;11.034;2024-03-06T06:35:20;31.13;;;11.80;;
75626;SDS011;67372;49.404;11.034;2024-03-06T06:37:46;31.83;;;13.23;;
75626;SDS011;67372;49.404;11.034;2024-03-06T06:40:13;30.35;;;11.43;;
75626;SDS011;67372;49.404;11.034;2024-03-06T06:42:47;31.20;;;12.48;;
75626;SDS011;67372;49.404;11.034;2024-03-06T06:45:15;35.75;;;13.75;;
75626;SDS011;67372;49.404;11.034;2024-03-06T06:47:42;32.55;;;12.38;;
75626;SDS011;67372;49.404;11.034;2024-03-06T06:50:08;36.03;;;14.40;;
75626;SDS011;67372;49.404;11.034;2024-03-06T06:52:35;35.30;;;13.02;;
75626;SDS011;67372;49.404;11.034;2024-03-06T06:55:02;32.80;;;12.30;;
75626;SDS011;67372;49.404;11.034;2024-03-06T06:57:29;36.50;;;13.35;;
75626;SDS011;67372;49.404;11.034;2024-03-06T06:59:56;33.50;;;13.60;;
75626;SDS011;67372;49.404;11.034;2024-03-06T07:02:22;31.63;;;11.73;;
75626;SDS011;67372;49.404;11.034;2024-03-06T07:04:49;33.28;;;12.77;;
75626;SDS011;67372;49.404;11.034;2024-03-06T07:07:15;34.33;;;12.45;;
75626;SDS011;67372;49.404;11.034;2024-03-06T07:09:42;31.55;;;12.27;;
75626;SDS011;67372;49.404;11.034;2024-03-06T07:12:09;34.40;;;12.43;;
75626;SDS011;67372;49.404;11.034;2024-03-06T07:14:35;34.53;;;12.23;;
75626;SDS011;67372;49.404;11.034;2024-03-06T07:17:02;33.75;;;12.68;;
75626;SDS011;67372;49.404;11.034;2024-03-06T07:19:29;30.02;;;11.52;;
75626;SDS011;67372;49.404;11.034;2024-03-06T07:21:55;29.48;;;13.43;;
75626;SDS011;67372;49.404;11.034;2024-03-06T07:24:21;33.55;;;13.18;;
75626;SDS011;67372;49.404;11.034;2024-03-06T07:26:48;32.30;;;12.43;;
75626;SDS011;67372;49.404;11.034;2024-03-06T07:29:14;33.58;;;13.70;;
75626;SDS011;67372;49.404;11.034;2024-03-06T07:31:41;29.60;;;12.68;;
75626;SDS011;67372;49.404;11.034;2024-03-06T07:34:08;33.05;;;12.73;;
75626;SDS011;67372;49.404;11.034;2024-03-06T07:36:34;34.75;;;12.35;;
75626;SDS011;67372;49.404;11.034;2024-03-06T07:39:01;32.00;;;13.13;;
75626;SDS011;67372;49.404;11.034;2024-03-06T07:41:29;28.05;;;11.25;;
75626;SDS011;67372;49.404;11.034;2024-03-06T07:43:55;35.00;;;13.00;;
75626;SDS011;67372;49.404;11.034;2024-03-06T07:46:22;31.13;;;12.70;;
75626;SDS011;67372;49.404;11.034;2024-03-06T07:48:48;31.02;;;11.25;;
75626;SDS011;67372;49.404;11.034;2024-03-06T07:51:14;33.38;;;11.98;;
75626;SDS011;67372;49.404;11.034;2024-03-06T07:53:41;25.38;;;10.85;;
75626;SDS011;67372;49.404;11.034;2024-03-06T07:56:09;30.30;;;11.07;;
75626;SDS011;67372;49.404;11.034;2024-03-06T07:58:36;29.75;;;11.65;;
75626;SDS011;67372;49.404;11.034;2024-03-06T08:01:03;27.50;;;10.85;;
75626;SDS011;67372;49.404;11.034;2024-03-06T08:03:29;27.02;;;10.27;;
75626;SDS011;67372;49.404;11.034;2024-03-06T08:05:56;27.52;;;10.95;;
75626;SDS011;67372;49.404;11.034;2024-03-06T08:08:22;27.35;;;10.65;;
75626;SDS011;67372;49.404;11.034;2024-03-06T08:10:49;25.95;;;10.55;;
75626;SDS011;67372;49.404;11.034;2024-03-06T08:13:16;26.50;;;10.20;;
75626;SDS011;67372;49.404;11.034;2024-03-06T08:15:42;23.02;;;9.27;;
75626;SDS011;67372;49.404;11.034;2024-03-06T08:18:08;23.85;;;9.85;;
75626;SDS011;67372;49.404;11.034;2024-03-06T08:20:35;22.70;;;9.32;;
75626;SDS011;67372;49.404;11.034;2024-03-06T08:23:01;24.85;;;9.63;;
75626;SDS011;67372;49.404;11.034;2024-03-06T08:25:28;20.48;;;8.98;;
75626;SDS011;67372;49.404;11.034;2024-03-06T08:27:54;23.63;;;9.68;;
75626;SDS011;67372;49.404;11.034;2024-03-06T08:30:21;20.33;;;9.30;;
75626;SDS011;67372;49.404;11.034;2024-03-06T08:32:47;20.27;;;8.80;;
75626;SDS011;67372;49.404;11.034;2024-03-06T08:35:13;19.65;;;8.48;;
75626;SDS011;67372;49.404;11.034;2024-03-06T08:37:45;26.70;;;9.52;;
75626;SDS011;67372;49.404;11.034;2024-03-06T08:40:11;19.88;;;9.00;;
75626;SDS011;67372;49.404;11.034;2024-03-06T08:42:38;21.70;;;8.77;;
75626;SDS011;67372;49.404;11.034;2024-03-06T08:45:04;23.33;;;8.65;;
75626;SDS011;67372;49.404;11.034;2024-03-06T08:47:31;21.15;;;8.85;;
75626;SDS011;67372;49.404;11.034;2024-03-06T08:49:57;21.10;;;8.82;;
75626;SDS011;67372;49.404;11.034;2024-03-06T08:52:24;22.70;;;8.68;;
75626;SDS011;67372;49.404;11.034;2024-03-06T08:54:50;23.05;;;8.90;;
75626;SDS011;67372;49.404;11.034;2024-03-06T08:57:17;20.23;;;8.45;;
75626;SDS011;67372;49.404;11.034;2024-03-06T08:59:43;21.50;;;8.98;;
75626;SDS011;67372;49.404;11.034;2024-03-06T09:02:14;23.05;;;9.35;;
75626;SDS011;67372;49.404;11.034;2024-03-06T09:04:41;19.05;;;7.82;;
75626;SDS011;67372;49.404;11.034;2024-03-06T09:07:08;20.15;;;8.50;;
75626;SDS011;67372;49.404;11.034;2024-03-06T09:09:35;22.45;;;8.43;;
75626;SDS011;67372;49.404;11.034;2024-03-06T09:12:05;20.90;;;8.75;;
75626;SDS011;67372;49.404;11.034;2024-03-06T09:14:32;18.58;;;8.65;;
75626;SDS011;67372;49.404;11.034;2024-03-06T09:16:59;17.58;;;7.93;;
75626;SDS011;67372;49.404;11.034;2024-03-06T09:19:26;17.52;;;7.82;;
75626;SDS011;67372;49.404;11.034;2024-03-06T09:21:53;19.65;;;9.13;;
75626;SDS011;67372;49.404;11.034;2024-03-06T09:24:20;20.40;;;9.35;;
75626;SDS011;67372;49.404;11.034;2024-03-06T09:26:47;21.05;;;8.32;;
75626;SDS011;67372;49.404;11.034;2024-03-06T09:29:14;18.20;;;8.55;;
75626;SDS011;67372;49.404;11.034;2024-03-06T09:31:42;19.15;;;8.35;;
75626;SDS011;67372;49.404;11.034;2024-03-06T09:34:09;19.20;;;8.18;;
75626;SDS011;67372;49.404;11.034;2024-03-06T09:36:35;20.70;;;8.18;;
75626;SDS011;67372;49.404;11.034;2024-03-06T09:39:01;19.02;;;8.25;;
75626;SDS011;67372;49.404;11.034;2024-03-06T09:41:28;18.98;;;8.18;;
75626;SDS011;67372;49.404;11.034;2024-03-06T09:43:54;21.88;;;8.93;;
75626;SDS011;67372;49.404;11.034;2024-03-06T09:46:21;22.10;;;9.05;;
75626;SDS011;67372;49.404;11.034;2024-03-06T09:48:47;23.23;;;9.10;;
75626;SDS011;67372;49.404;11.034;2024-03-06T09:51:17;21.58;;;8.90;;
75626;SDS011;67372;49.404;11.034;2024-03-06T09:53:43;23.50;;;9.40;;
75626;SDS011;67372;49.404;11.034;2024-03-06T09:56:10;21.27;;;8.35;;
75626;SDS011;67372;49.404;11.034;2024-03-06T09:58:36;22.80;;;8.52;;
75626;SDS011;67372;49.404;11.034;2024-03-06T10:01:03;20.92;;;8.32;;
75626;SDS011;67372;49.404;11.034;2024-03-06T10:03:31;20.02;;;8.90;;
75626;SDS011;67372;49.404;11.034;2024-03-06T10:05:57;20.83;;;9.13;;
75626;SDS011;67372;49.404;11.034;2024-03-06T10:08:28;20.50;;;8.35;;
75626;SDS011;67372;49.404;11.034;2024-03-06T10:10:54;23.15;;;8.43;;
75626;SDS011;67372;49.404;11.034;2024-03-06T10:15:55;22.45;;;8.35;;
75626;SDS011;67372;49.404;11.034;2024-03-06T10:18:26;17.25;;;7.75;;
75626;SDS011;67372;49.404;11.034;2024-03-06T10:20:54;23.05;;;8.57;;
75626;SDS011;67372;49.404;11.034;2024-03-06T10:23:21;20.35;;;8.18;;
75626;SDS011;67372;49.404;11.034;2024-03-06T10:25:47;19.05;;;7.78;;
75626;SDS011;67372;49.404;11.034;2024-03-06T10:28:14;19.48;;;8.38;;
75626;SDS011;67372;49.404;11.034;2024-03-06T10:30:41;18.83;;;8.45;;
75626;SDS011;67372;49.404;11.034;2024-03-06T10:33:09;18.25;;;7.68;;
75626;SDS011;67372;49.404;11.034;2024-03-06T10:35:36;18.42;;;7.55;;
75626;SDS011;67372;49.404;11.034;2024-03-06T10:38:04;16.40;;;7.55;;
75626;SDS011;67372;49.404;11.034;2024-03-06T10:40:33;17.83;;;7.97;;
75626;SDS011;67372;49.404;11.034;2024-03-06T10:45:57;21.88;;;8.18;;
75626;SDS011;67372;49.404;11.034;2024-03-06T10:48:32;18.00;;;7.05;;
75626;SDS011;67372;49.404;11.034;2024-03-06T10:51:00;20.55;;;8.27;;
75626;SDS011;67372;49.404;11.034;2024-03-06T10:53:27;22.08;;;8.45;;
75626;SDS011;67372;49.404;11.034;2024-03-06T10:55:56;17.65;;;7.35;;
75626;SDS011;67372;49.404;11.034;2024-03-06T10:58:23;18.58;;;8.05;;
75626;SDS011;67372;49.404;11.034;2024-03-06T11:00:50;18.95;;;7.70;;
75626;SDS011;67372;49.404;11.034;2024-03-06T11:03:17;19.98;;;8.68;;
75626;SDS011;67372;49.404;11.034;2024-03-06T11:05:44;19.30;;;8.05;;
75626;SDS011;67372;49.404;11.034;2024-03-06T11:08:11;18.45;;;8.07;;
75626;SDS011;67372;49.404;11.034;2024-03-06T11:10:40;19.85;;;8.20;;
75626;SDS011;67372;49.404;11.034;2024-03-06T11:15:46;20.27;;;8.88;;
75626;SDS011;67372;49.404;11.034;2024-03-06T11:20:59;19.13;;;8.50;;
75626;SDS011;67372;49.404;11.034;2024-03-06T11:26:45;19.88;;;7.70;;
75626;SDS011;67372;49.404;11.034;2024-03-06T11:29:22;19.35;;;8.23;;
75626;SDS011;67372;49.404;11.034;2024-03-06T11:32:07;18.50;;;8.15;;
75626;SDS011;67372;49.404;11.034;2024-03-06T11:34:34;19.17;;;7.45;;
75626;SDS011;67372;49.404;11.034;2024-03-06T11:37:05;17.70;;;7.32;;
75626;SDS011;67372;49.404;11.034;2024-03-06T11:39:33;16.73;;;7.05;;
75626;SDS011;67372;49.404;11.034;2024-03-06T11:42:01;13.65;;;7.05;;
75626;SDS011;67372;49.404;11.034;2024-03-06T11:44:27;18.60;;;7.57;;
75626;SDS011;67372;49.404;11.034;2024-03-06T11:47:00;19.95;;;7.63;;
75626;SDS011;67372;49.404;11.034;2024-03-06T11:49:28;16.98;;;7.53;;
75626;SDS011;67372;49.404;11.034;2024-03-06T11:51:56;18.83;;;8.25;;
75626;SDS011;67372;49.404;11.034;2024-03-06T11:54:23;17.40;;;7.50;;
75626;SDS011;67372;49.404;11.034;2024-03-06T11:56:50;17.10;;;7.50;;
75626;SDS011;67372;49.404;11.034;2024-03-06T11:59:20;16.23;;;7.22;;
75626;SDS011;67372;49.404;11.034;2024-03-06T12:01:47;18.73;;;7.78;;
75626;SDS011;67372;49.404;11.034;2024-03-06T12:04:14;17.80;;;7.85;;
75626;SDS011;67372;49.404;11.034;2024-03-06T12:06:40;17.75;;;7.65;;
75626;SDS011;67372;49.404;11.034;2024-03-06T12:09:07;17.65;;;7.13;;
75626;SDS011;67372;49.404;11.034;2024-03-06T12:11:35;19.65;;;7.82;;
75626;SDS011;67372;49.404;11.034;2024-03-06T12:14:02;17.02;;;7.90;;
75626;SDS011;67372;49.404;11.034;2024-03-06T12:16:28;19.00;;;7.40;;
75626;SDS011;67372;49.404;11.034;2024-03-06T12:21:33;16.52;;;7.75;;
75626;SDS011;67372;49.404;11.034;2024-03-06T12:24:07;17.80;;;7.60;;
75626;SDS011;67372;49.404;11.034;2024-03-06T12:26:35;19.35;;;8.90;;
75626;SDS011;67372;49.404;11.034;2024-03-06T12:29:03;17.75;;;7.28;;
75626;SDS011;67372;49.404;11.034;2024-03-06T12:31:34;17.23;;;7.15;;
75626;SDS011;67372;49.404;11.034;2024-03-06T12:34:01;17.02;;;7.25;;
75626;SDS011;67372;49.404;11.034;2024-03-06T12:36:30;18.88;;;7.40;;
75626;SDS011;67372;49.404;11.034;2024-03-06T12:39:00;18.50;;;6.90;;
75626;SDS011;67372;49.404;11.034;2024-03-06T12:41:28;17.38;;;7.28;;
75626;SDS011;67372;49.404;11.034;2024-03-06T12:43:55;15.45;;;6.55;;
75626;SDS011;67372;49.404;11.034;2024-03-06T12:46:23;14.93;;;6.90;;
75626;SDS011;67372;49.404;11.034;2024-03-06T12:48:50;14.57;;;6.05;;
75626;SDS011;67372;49.404;11.034;2024-03-06T12:51:17;15.77;;;6.20;;
75626;SDS011;67372;49.404;11.034;2024-03-06T12:53:43;14.40;;;6.07;;
75626;SDS011;67372;49.404;11.034;2024-03-06T12:56:10;15.13;;;6.03;;
75626;SDS011;67372;49.404;11.034;2024-03-06T12:58:36;16.05;;;6.50;;
75626;SDS011;67372;49.404;11.034;2024-03-06T13:01:03;14.60;;;5.70;;
75626;SDS011;67372;49.404;11.034;2024-03-06T13:03:29;14.68;;;6.47;;
75626;SDS011;67372;49.404;11.034;2024-03-06T13:05:56;15.07;;;6.88;;
75626;SDS011;67372;49.404;11.034;2024-03-06T13:08:22;14.13;;;6.32;;
75626;SDS011;67372;49.404;11.034;2024-03-06T13:10:49;13.20;;;5.78;;
75626;SDS011;67372;49.404;11.034;2024-03-06T13:13:15;14.45;;;6.55;;
75626;SDS011;67372;49.404;11.034;2024-03-06T13:15:42;13.55;;;6.07;;
75626;SDS011;67372;49.404;11.034;2024-03-06T13:18:08;13.25;;;6.10;;
75626;SDS011;67372;49.404;11.034;2024-03-06T13:20:35;13.23;;;5.88;;
75626;SDS011;67372;49.404;11.034;2024-03-06T13:23:01;16.70;;;7.63;;
75626;SDS011;67372;49.404;11.034;2024-03-06T13:25:28;16.00;;;6.78;;
75626;SDS011;67372;49.404;11.034;2024-03-06T13:27:54;13.23;;;5.53;;
75626;SDS011;67372;49.404;11.034;2024-03-06T13:30:21;13.93;;;6.50;;
75626;SDS011;67372;49.404;11.034;2024-03-06T13:32:47;14.48;;;6.97;;
75626;SDS011;67372;49.404;11.034;2024-03-06T13:35:14;14.13;;;6.43;;
75626;SDS011;67372;49.404;11.034;2024-03-06T13:37:40;14.45;;;6.45;;
75626;SDS011;67372;49.404;11.034;2024-03-06T13:40:07;14.70;;;6.20;;
75626;SDS011;67372;49.404;11.034;2024-03-06T13:42:35;13.57;;;6.75;;
75626;SDS011;67372;49.404;11.034;2024-03-06T13:45:01;16.27;;;6.82;;
75626;SDS011;67372;49.404;11.034;2024-03-06T13:47:28;14.63;;;6.20;;
75626;SDS011;67372;49.404;11.034;2024-03-06T13:49:56;14.18;;;7.07;;
75626;SDS011;67372;49.404;11.034;2024-03-06T13:52:23;13.77;;;6.35;;
75626;SDS011;67372;49.404;11.034;2024-03-06T13:54:49;16.52;;;6.45;;
75626;SDS011;67372;49.404;11.034;2024-03-06T13:57:15;13.70;;;6.53;;
75626;SDS011;67372;49.404;11.034;2024-03-06T13:59:42;14.90;;;6.47;;
75626;SDS011;67372;49.404;11.034;2024-03-06T14:02:09;15.10;;;6.43;;
75626;SDS011;67372;49.404;11.034;2024-03-06T14:04:35;15.85;;;7.10;;
75626;SDS011;67372;49.404;11.034;2024-03-06T14:07:02;15.07;;;6.63;;
75626;SDS011;67372;49.404;11.034;2024-03-06T14:09:29;16.17;;;6.65;;
75626;SDS011;67372;49.404;11.034;2024-03-06T14:11:55;15.60;;;6.68;;
75626;SDS011;67372;49.404;11.034;2024-03-06T14:14:21;15.13;;;6.85;;
75626;SDS011;67372;49.404;11.034;2024-03-06T14:16:48;16.92;;;6.30;;
75626;SDS011;67372;49.404;11.034;2024-03-06T14:19:14;14.80;;;6.85;;
75626;SDS011;67372;49.404;11.034;2024-03-06T14:21:41;14.90;;;6.97;;
75626;SDS011;67372;49.404;11.034;2024-03-06T14:24:07;17.40;;;7.88;;
75626;SDS011;67372;49.404;11.034;2024-03-06T14:26:34;14.60;;;7.45;;
75626;SDS011;67372;49.404;11.034;2024-03-06T14:29:01;14.70;;;6.47;;
75626;SDS011;67372;49.404;11.034;2024-03-06T14:31:28;15.77;;;7.18;;
75626;SDS011;67372;49.404;11.034;2024-03-06T14:33:55;17.35;;;7.07;;
75626;SDS011;67372;49.404;11.034;2024-03-06T14:36:21;18.30;;;8.35;;